Time;durP1;ratioP1;P1;durP2;ratioP2;P2;SDS_P1;SDS_P2;PMS_P1;PMS_P2;Temp;Humidity;BMP_temperature;BMP_pressure;BME280_temperature;BME280_humidity;BME280_pressure;Samples;Min_cycle;Max_cycle;Signal;HPM_P1;HPM_P2
2023/02/11 00:01:25;;;;;;;1.98;0.57;;;;;;;;;;4998830;28;20871;-64
2023/02/11 00:04:11;;;;;;;1.50;0.45;;;;;;;;;;5017167;28;20051;-64
2023/02/11 00:06:38;;;;;;;2.40;0.50;;;;;;;;;;5012360;28;20034;-63
2023/02/11 00:09:05;;;;;;;2.30;0.65;;;;;;;;;;5012648;28;20049;-66
2023/02/11 00:11:32;;;;;;;1.60;0.50;;;;;;;;;;5012085;28;20052;-64
2023/02/11 00:14:18;;;;;;;2.03;0.57;;;;;;;;;;5018710;28;20395;-67
2023/02/11 00:16:45;;;;;;;2.58;0.70;;;;;;;;;;5016856;28;20762;-62
2023/02/11 00:19:11;;;;;;;1.75;0.50;;;;;;;;;;5017925;28;20150;-65
2023/02/11 00:21:38;;;;;;;1.35;0.52;;;;;;;;;;5015582;28;20142;-62
2023/02/11 00:24:05;;;;;;;1.98;0.60;;;;;;;;;;5014721;28;20127;-60
2023/02/11 00:26:33;;;;;;;2.45;0.60;;;;;;;;;;5013620;28;20443;-62
2023/02/11 00:29:00;;;;;;;2.60;0.60;;;;;;;;;;4979200;28;20513;-60
2023/02/11 00:31:27;;;;;;;2.97;0.57;;;;;;;;;;5012427;28;20045;-61
2023/02/11 00:33:54;;;;;;;2.58;0.55;;;;;;;;;;5012377;28;20096;-61
2023/02/11 00:36:24;;;;;;;2.55;0.60;;;;;;;;;;4992933;28;20061;-60
2023/02/11 00:38:51;;;;;;;1.75;0.57;;;;;;;;;;4992447;28;20106;-60
2023/02/11 00:41:18;;;;;;;3.03;0.70;;;;;;;;;;4991871;28;20057;-61
2023/02/11 00:43:45;;;;;;;2.33;0.70;;;;;;;;;;4990864;28;20106;-62
2023/02/11 00:46:12;;;;;;;2.88;0.40;;;;;;;;;;4993533;28;20090;-61
2023/02/11 00:48:39;;;;;;;3.45;0.73;;;;;;;;;;4991138;28;20165;-61
2023/02/11 00:51:06;;;;;;;1.50;0.50;;;;;;;;;;4993752;28;20038;-64
2023/02/11 00:53:33;;;;;;;4.18;0.60;;;;;;;;;;5000082;28;20518;-64
2023/02/11 00:56:00;;;;;;;2.60;0.68;;;;;;;;;;4996448;28;21707;-62
2023/02/11 00:58:27;;;;;;;1.52;0.50;;;;;;;;;;4998503;28;20037;-63
2023/02/11 01:00:54;;;;;;;1.38;0.50;;;;;;;;;;4995136;28;20044;-62
2023/02/11 01:03:21;;;;;;;2.65;0.68;;;;;;;;;;4995099;28;20068;-65
2023/02/11 01:05:48;;;;;;;2.80;0.50;;;;;;;;;;4997961;28;20132;-63
2023/02/11 01:08:14;;;;;;;1.90;0.60;;;;;;;;;;4996371;28;20056;-63
2023/02/11 01:10:42;;;;;;;2.15;0.63;;;;;;;;;;4999666;28;20116;-60
2023/02/11 01:13:09;;;;;;;3.40;0.50;;;;;;;;;;5001274;28;20046;-64
2023/02/11 01:15:36;;;;;;;2.47;0.50;;;;;;;;;;5002182;28;20038;-62
2023/02/11 01:18:04;;;;;;;3.35;0.70;;;;;;;;;;5003303;28;20057;-61
2023/02/11 01:20:30;;;;;;;1.23;0.45;;;;;;;;;;5000554;28;20073;-65
2023/02/11 01:22:57;;;;;;;3.65;0.68;;;;;;;;;;5021937;28;20045;-60
2023/02/11 01:25:24;;;;;;;2.92;0.60;;;;;;;;;;5006845;28;20160;-63
2023/02/11 01:27:50;;;;;;;1.73;0.60;;;;;;;;;;5005111;28;20045;-63
2023/02/11 01:30:19;;;;;;;5.30;0.63;;;;;;;;;;5011559;28;20049;-64
2023/02/11 01:32:46;;;;;;;2.72;0.65;;;;;;;;;;5003426;28;20105;-63
2023/02/11 01:35:12;;;;;;;0.85;0.40;;;;;;;;;;5001679;28;20165;-62
2023/02/11 01:37:39;;;;;;;3.78;0.60;;;;;;;;;;4999507;28;20046;-63
2023/02/11 01:40:08;;;;;;;2.40;0.60;;;;;;;;;;5002724;28;20045;-62
2023/02/11 01:42:34;;;;;;;2.35;0.70;;;;;;;;;;5001566;28;20096;-62
2023/02/11 01:45:02;;;;;;;3.47;0.65;;;;;;;;;;5000907;28;20060;-61
2023/02/11 01:47:28;;;;;;;6.03;0.75;;;;;;;;;;5000875;28;20142;-63
2023/02/11 01:50:00;;;;;;;1.58;0.60;;;;;;;;;;5000231;28;20038;-66
2023/02/11 01:52:35;;;;;;;2.03;0.60;;;;;;;;;;5000537;28;20457;-66
2023/02/11 01:57:55;;;;;;;3.40;0.60;;;;;;;;;;4997781;28;20088;-63
2023/02/11 02:00:24;;;;;;;1.63;0.60;;;;;;;;;;4999456;28;20041;-64
2023/02/11 02:02:51;;;;;;;4.03;0.80;;;;;;;;;;5002593;28;20041;-65
2023/02/11 02:05:17;;;;;;;3.03;0.70;;;;;;;;;;5001421;28;20125;-62
2023/02/11 02:08:00;;;;;;;4.78;0.70;;;;;;;;;;4995589;28;20758;-65
2023/02/11 02:10:27;;;;;;;1.75;0.50;;;;;;;;;;4998458;28;20165;-63
2023/02/11 02:12:54;;;;;;;4.97;0.80;;;;;;;;;;4999792;28;20103;-63
2023/02/11 02:15:23;;;;;;;3.17;0.60;;;;;;;;;;5000364;28;20045;-62
2023/02/11 02:17:55;;;;;;;1.50;0.45;;;;;;;;;;5000397;28;20136;-65
2023/02/11 02:20:39;;;;;;;1.80;0.50;;;;;;;;;;5000372;28;20203;-65
2023/02/11 02:23:25;;;;;;;2.47;0.60;;;;;;;;;;4999944;28;20048;-62
2023/02/11 02:26:10;;;;;;;3.00;0.60;;;;;;;;;;4997706;28;20474;-63
2023/02/11 02:28:37;;;;;;;3.15;0.80;;;;;;;;;;5001752;28;20038;-64
2023/02/11 02:31:18;;;;;;;1.83;0.55;;;;;;;;;;5001160;28;20077;-62
2023/02/11 02:33:48;;;;;;;2.83;1.00;;;;;;;;;;4999902;28;20125;-64
2023/02/11 02:36:23;;;;;;;2.35;0.63;;;;;;;;;;4998651;28;20069;-61
2023/02/11 02:38:59;;;;;;;2.50;0.80;;;;;;;;;;4991776;28;20084;-61
2023/02/11 02:41:35;;;;;;;4.18;0.63;;;;;;;;;;5001573;28;21650;-61
2023/02/11 02:44:02;;;;;;;1.90;0.50;;;;;;;;;;4999762;28;20049;-63
2023/02/11 02:46:31;;;;;;;2.58;0.70;;;;;;;;;;5000400;28;20119;-61
2023/02/11 02:48:58;;;;;;;1.55;0.50;;;;;;;;;;5001863;28;20107;-66
2023/02/11 02:51:43;;;;;;;1.73;0.60;;;;;;;;;;5001861;28;20080;-63
2023/02/11 02:54:29;;;;;;;2.05;0.70;;;;;;;;;;5000762;28;20511;-64
2023/02/11 02:56:55;;;;;;;2.63;0.63;;;;;;;;;;5011456;28;20072;-66
2023/02/11 02:59:37;;;;;;;1.23;0.45;;;;;;;;;;5002772;28;20682;-61
2023/02/11 03:02:14;;;;;;;1.92;0.50;;;;;;;;;;4997801;28;20121;-64
2023/02/11 03:04:40;;;;;;;1.63;0.50;;;;;;;;;;4997330;28;20034;-64
2023/02/11 03:07:29;;;;;;;1.95;0.50;;;;;;;;;;4999309;28;20128;-65
2023/02/11 03:10:02;;;;;;;3.08;0.60;;;;;;;;;;5010538;28;20108;-62
2023/02/11 03:12:31;;;;;;;2.08;0.60;;;;;;;;;;5001401;28;20439;-59
2023/02/11 03:14:59;;;;;;;4.10;0.50;;;;;;;;;;4998024;28;20029;-61
2023/02/11 03:17:26;;;;;;;2.45;0.60;;;;;;;;;;4996868;28;20537;-61
2023/02/11 03:19:53;;;;;;;2.90;0.70;;;;;;;;;;4998179;28;20046;-62
2023/02/11 03:22:22;;;;;;;2.15;0.80;;;;;;;;;;4998938;28;20034;-64
2023/02/11 03:24:49;;;;;;;2.03;0.60;;;;;;;;;;4999180;28;20050;-62
2023/02/11 03:27:42;;;;;;;2.78;0.70;;;;;;;;;;4997797;28;20038;-64
2023/02/11 03:30:30;;;;;;;2.25;0.50;;;;;;;;;;4979567;28;20042;-62
2023/02/11 03:33:03;;;;;;;1.30;0.50;;;;;;;;;;5011031;28;20048;-61
2023/02/11 03:35:35;;;;;;;1.27;0.40;;;;;;;;;;5010011;28;20038;-62
2023/02/11 03:38:05;;;;;;;0.95;0.40;;;;;;;;;;5003608;28;20184;-62
2023/02/11 03:40:35;;;;;;;1.17;0.43;;;;;;;;;;4998881;28;20076;-63
2023/02/11 03:43:08;;;;;;;4.35;0.57;;;;;;;;;;4998222;28;20526;-65
2023/02/11 03:45:36;;;;;;;1.73;0.40;;;;;;;;;;4997904;28;20038;-63
2023/02/11 03:48:11;;;;;;;2.90;0.60;;;;;;;;;;4998464;28;20046;-65
2023/02/11 03:50:39;;;;;;;2.78;0.60;;;;;;;;;;5000652;28;20049;-63
2023/02/11 03:53:06;;;;;;;2.78;0.70;;;;;;;;;;4994834;28;20106;-63
2023/02/11 03:55:35;;;;;;;2.42;0.63;;;;;;;;;;4997275;28;20073;-62
2023/02/11 03:58:01;;;;;;;4.88;0.75;;;;;;;;;;4993696;28;20042;-65
2023/02/11 04:00:31;;;;;;;5.15;0.70;;;;;;;;;;4998042;28;20057;-63
2023/02/11 04:02:58;;;;;;;3.10;0.70;;;;;;;;;;4999067;28;20044;-63
2023/02/11 04:05:25;;;;;;;2.85;0.70;;;;;;;;;;5010662;28;20491;-63
2023/02/11 04:07:51;;;;;;;2.75;0.60;;;;;;;;;;4998990;28;20050;-62
2023/02/11 04:10:18;;;;;;;6.70;0.95;;;;;;;;;;4997785;28;20040;-63
2023/02/11 04:12:45;;;;;;;1.48;0.47;;;;;;;;;;4996776;28;20052;-64
2023/02/11 04:15:11;;;;;;;2.95;0.60;;;;;;;;;;5008718;28;20044;-64
2023/02/11 04:17:38;;;;;;;3.33;0.60;;;;;;;;;;4995627;28;20034;-64
2023/02/11 04:20:05;;;;;;;5.78;0.70;;;;;;;;;;4995427;28;20061;-66
2023/02/11 04:22:31;;;;;;;2.28;0.60;;;;;;;;;;4995569;28;20029;-64
2023/02/11 04:24:58;;;;;;;3.70;0.80;;;;;;;;;;4997081;28;20129;-64
2023/02/11 04:27:25;;;;;;;2.35;0.70;;;;;;;;;;4996929;28;20833;-64
2023/02/11 04:29:52;;;;;;;2.30;0.70;;;;;;;;;;4998397;28;20194;-62
2023/02/11 04:32:19;;;;;;;5.00;0.80;;;;;;;;;;4996992;28;20633;-67
2023/02/11 04:34:47;;;;;;;3.75;1.20;;;;;;;;;;5010551;28;20034;-61
2023/02/11 04:37:14;;;;;;;3.97;0.90;;;;;;;;;;4997727;28;20165;-64
2023/02/11 04:39:40;;;;;;;2.85;0.85;;;;;;;;;;4997214;28;21252;-63
2023/02/11 04:42:07;;;;;;;11.82;1.20;;;;;;;;;;4996658;28;20160;-63
2023/02/11 04:44:34;;;;;;;3.58;1.02;;;;;;;;;;4996536;28;20037;-64
2023/02/11 04:47:01;;;;;;;6.07;1.17;;;;;;;;;;4999109;28;20030;-63
2023/02/11 04:49:27;;;;;;;2.92;0.90;;;;;;;;;;4994025;28;20577;-64
2023/02/11 04:51:54;;;;;;;4.70;0.90;;;;;;;;;;5014738;28;20046;-65
2023/02/11 04:54:21;;;;;;;4.35;1.15;;;;;;;;;;4999859;28;20092;-65
2023/02/11 04:56:48;;;;;;;3.28;0.95;;;;;;;;;;5010325;28;20052;-62
2023/02/11 04:59:15;;;;;;;4.80;1.30;;;;;;;;;;5020392;28;20046;-64
2023/02/11 05:01:42;;;;;;;5.97;1.45;;;;;;;;;;5019446;28;20065;-66
2023/02/11 05:04:08;;;;;;;6.72;1.27;;;;;;;;;;5021024;28;20092;-62
2023/02/11 05:06:35;;;;;;;5.57;0.98;;;;;;;;;;5020401;28;20057;-61
2023/02/11 05:09:02;;;;;;;9.25;1.20;;;;;;;;;;5020286;28;20092;-64
2023/02/11 05:11:28;;;;;;;2.05;0.70;;;;;;;;;;5019396;28;20041;-64
2023/02/11 05:13:55;;;;;;;2.53;0.63;;;;;;;;;;5020637;28;20037;-64
2023/02/11 05:16:22;;;;;;;8.40;0.75;;;;;;;;;;5013234;28;20132;-63
2023/02/11 05:18:49;;;;;;;5.05;0.95;;;;;;;;;;5012609;28;20600;-63
2023/02/11 05:21:16;;;;;;;5.78;1.02;;;;;;;;;;5019720;28;20049;-63
2023/02/11 05:23:45;;;;;;;3.13;0.68;;;;;;;;;;5019851;28;20049;-63
2023/02/11 05:26:12;;;;;;;3.30;0.88;;;;;;;;;;5019405;28;20052;-63
2023/02/11 05:28:39;;;;;;;5.05;0.80;;;;;;;;;;5020218;28;20034;-63
2023/02/11 05:31:06;;;;;;;2.03;0.70;;;;;;;;;;5021678;28;20041;-64
2023/02/11 05:33:32;;;;;;;7.78;1.08;;;;;;;;;;5021061;28;20053;-65
2023/02/11 05:36:04;;;;;;;3.47;0.70;;;;;;;;;;5020664;28;20040;-63
2023/02/11 05:38:31;;;;;;;1.98;0.60;;;;;;;;;;5009803;28;20470;-64
2023/02/11 05:40:58;;;;;;;2.65;0.80;;;;;;;;;;5021101;28;20817;-62
2023/02/11 05:43:24;;;;;;;4.75;0.75;;;;;;;;;;5019238;28;20041;-65
2023/02/11 05:45:51;;;;;;;3.78;1.00;;;;;;;;;;5019875;28;20473;-64
2023/02/11 05:48:18;;;;;;;7.60;1.10;;;;;;;;;;5021345;28;21292;-62
2023/02/11 05:50:44;;;;;;;2.70;0.70;;;;;;;;;;5011366;28;20111;-62
2023/02/11 05:53:11;;;;;;;2.60;0.70;;;;;;;;;;5019805;28;20041;-63
2023/02/11 05:55:38;;;;;;;5.60;0.82;;;;;;;;;;5019773;28;20033;-61
2023/02/11 05:58:06;;;;;;;8.10;0.82;;;;;;;;;;5017946;28;20055;-66
2023/02/11 06:00:33;;;;;;;3.97;0.90;;;;;;;;;;5018299;28;20041;-63
2023/02/11 06:03:00;;;;;;;2.42;0.60;;;;;;;;;;5020975;28;20152;-59
2023/02/11 06:05:27;;;;;;;1.50;0.50;;;;;;;;;;5020553;28;20147;-63
2023/02/11 06:07:54;;;;;;;1.35;0.50;;;;;;;;;;5019466;28;20107;-64
2023/02/11 06:10:20;;;;;;;1.55;0.30;;;;;;;;;;5020517;28;21758;-62
2023/02/11 06:12:47;;;;;;;2.28;0.70;;;;;;;;;;5019213;28;20041;-62
2023/02/11 06:15:14;;;;;;;2.45;0.60;;;;;;;;;;5019875;28;20045;-63
2023/02/11 06:17:40;;;;;;;5.50;0.50;;;;;;;;;;5018145;28;20052;-62
2023/02/11 06:20:09;;;;;;;1.45;0.40;;;;;;;;;;5020087;28;20041;-61
2023/02/11 06:22:35;;;;;;;2.95;0.50;;;;;;;;;;5016855;28;20041;-61
2023/02/11 06:25:02;;;;;;;1.58;0.50;;;;;;;;;;5019459;28;20045;-63
2023/02/11 06:27:29;;;;;;;2.45;0.50;;;;;;;;;;5016632;28;20451;-64
2023/02/11 06:29:56;;;;;;;2.05;0.47;;;;;;;;;;5018752;28;20042;-61
2023/02/11 06:32:22;;;;;;;2.83;0.50;;;;;;;;;;5020311;28;20037;-63
2023/02/11 06:34:49;;;;;;;2.50;0.40;;;;;;;;;;5019062;28;20633;-64
2023/02/11 06:37:15;;;;;;;2.50;0.60;;;;;;;;;;5018978;28;20048;-62
2023/02/11 06:39:44;;;;;;;0.30;0.30;;;;;;;;;;5019469;28;20738;-63
2023/02/11 06:42:10;;;;;;;3.72;0.40;;;;;;;;;;5020481;28;20057;-63
2023/02/11 06:44:37;;;;;;;1.33;0.40;;;;;;;;;;5018751;28;20107;-62
2023/02/11 06:47:04;;;;;;;2.17;0.50;;;;;;;;;;5016950;28;20037;-62
2023/02/11 06:49:31;;;;;;;2.75;0.45;;;;;;;;;;5019729;28;20049;-62
2023/02/11 06:51:57;;;;;;;1.63;0.50;;;;;;;;;;5021041;28;20045;-63
2023/02/11 06:54:24;;;;;;;1.92;0.50;;;;;;;;;;5020197;28;20046;-63
2023/02/11 06:56:50;;;;;;;1.60;0.50;;;;;;;;;;5016313;28;20405;-62
2023/02/11 06:59:19;;;;;;;0.77;0.38;;;;;;;;;;5019632;28;21014;-62
2023/02/11 07:01:46;;;;;;;4.55;0.60;;;;;;;;;;4988107;28;20049;-63
2023/02/11 07:04:13;;;;;;;1.75;0.50;;;;;;;;;;4995520;28;20049;-63
2023/02/11 07:06:40;;;;;;;5.28;0.55;;;;;;;;;;5006166;28;20034;-65
2023/02/11 07:09:07;;;;;;;3.45;0.60;;;;;;;;;;4999737;28;20092;-63
2023/02/11 07:11:34;;;;;;;4.07;0.70;;;;;;;;;;4996997;28;20119;-62
2023/02/11 07:14:02;;;;;;;3.38;0.60;;;;;;;;;;4999422;28;20402;-63
2023/02/11 07:16:29;;;;;;;1.33;0.50;;;;;;;;;;4997669;28;20038;-66
2023/02/11 07:18:56;;;;;;;7.95;0.80;;;;;;;;;;4999493;28;20076;-62
2023/02/11 07:21:23;;;;;;;1.27;0.45;;;;;;;;;;4998670;28;20038;-62
2023/02/11 07:23:50;;;;;;;1.75;0.50;;;;;;;;;;4998812;28;20045;-61
2023/02/11 07:26:18;;;;;;;2.00;0.52;;;;;;;;;;4998090;28;20045;-62
2023/02/11 07:28:45;;;;;;;6.25;0.50;;;;;;;;;;4994732;28;20046;-64
2023/02/11 07:31:15;;;;;;;1.70;0.60;;;;;;;;;;5014775;28;20087;-62
2023/02/11 07:33:44;;;;;;;2.58;0.57;;;;;;;;;;5023368;28;20715;-62
2023/02/11 07:36:11;;;;;;;1.17;0.40;;;;;;;;;;5022805;28;20499;-63
2023/02/11 07:38:38;;;;;;;2.85;0.50;;;;;;;;;;5022721;28;20056;-64
2023/02/11 07:41:06;;;;;;;1.80;0.60;;;;;;;;;;5022902;28;20410;-62
2023/02/11 07:43:34;;;;;;;1.50;0.50;;;;;;;;;;5019699;28;20596;-64
2023/02/11 07:46:03;;;;;;;1.63;0.52;;;;;;;;;;5013310;28;20961;-62
2023/02/11 07:48:30;;;;;;;1.95;0.50;;;;;;;;;;5018456;28;20475;-64
2023/02/11 07:51:04;;;;;;;3.00;0.60;;;;;;;;;;5019878;28;20048;-64
2023/02/11 07:53:31;;;;;;;3.13;0.60;;;;;;;;;;5014277;28;20562;-63
2023/02/11 07:55:57;;;;;;;1.60;0.55;;;;;;;;;;5016052;28;20061;-62
2023/02/11 07:58:24;;;;;;;5.20;0.73;;;;;;;;;;5017579;28;20041;-62
2023/02/11 08:00:51;;;;;;;2.45;0.47;;;;;;;;;;5019269;28;20560;-63
2023/02/11 08:03:17;;;;;;;6.45;0.90;;;;;;;;;;5019192;28;20041;-62
2023/02/11 08:05:44;;;;;;;7.60;0.50;;;;;;;;;;5019786;28;20041;-65
2023/02/11 08:08:11;;;;;;;3.05;0.50;;;;;;;;;;5018012;28;20049;-63
2023/02/11 08:10:38;;;;;;;3.03;0.55;;;;;;;;;;5017643;28;20212;-62
2023/02/11 08:13:04;;;;;;;3.25;0.60;;;;;;;;;;5001032;28;20380;-60
2023/02/11 08:15:31;;;;;;;4.47;0.75;;;;;;;;;;5016810;28;20029;-64
2023/02/11 08:17:57;;;;;;;1.08;0.43;;;;;;;;;;5018820;28;20150;-62
2023/02/11 08:20:24;;;;;;;2.00;0.65;;;;;;;;;;5017041;28;20041;-61
2023/02/11 08:22:51;;;;;;;1.20;0.40;;;;;;;;;;5018177;28;20063;-63
2023/02/11 08:25:17;;;;;;;1.48;0.47;;;;;;;;;;5021794;28;20375;-65
2023/02/11 08:27:44;;;;;;;3.33;0.60;;;;;;;;;;5021909;28;20037;-63
2023/02/11 08:30:11;;;;;;;2.97;0.57;;;;;;;;;;5021231;28;20394;-62
2023/02/11 08:32:38;;;;;;;1.17;0.47;;;;;;;;;;5020808;28;20033;-59
2023/02/11 08:35:06;;;;;;;1.67;0.50;;;;;;;;;;5021150;28;20033;-62
2023/02/11 08:37:33;;;;;;;11.65;1.10;;;;;;;;;;5020026;28;20573;-62
2023/02/11 08:40:00;;;;;;;2.97;0.70;;;;;;;;;;5021241;28;20044;-61
2023/02/11 08:42:27;;;;;;;4.63;0.70;;;;;;;;;;5003230;28;20570;-62
2023/02/11 08:44:53;;;;;;;13.35;1.15;;;;;;;;;;5022675;28;20049;-62
2023/02/11 08:47:20;;;;;;;3.83;0.80;;;;;;;;;;5020819;28;20039;-61
2023/02/11 08:49:46;;;;;;;3.75;0.85;;;;;;;;;;5023211;28;20817;-65
2023/02/11 08:52:13;;;;;;;2.60;0.70;;;;;;;;;;5023677;28;20104;-63
2023/02/11 08:54:40;;;;;;;2.92;0.82;;;;;;;;;;5037207;28;20041;-65
2023/02/11 08:57:06;;;;;;;5.93;0.88;;;;;;;;;;5038243;28;20038;-66
2023/02/11 08:59:33;;;;;;;3.95;1.15;;;;;;;;;;5022701;28;20457;-63
2023/02/11 09:02:00;;;;;;;3.83;0.70;;;;;;;;;;5024036;28;20044;-63
2023/02/11 09:04:26;;;;;;;4.72;0.68;;;;;;;;;;5021629;28;20080;-64
2023/02/11 09:06:53;;;;;;;4.90;0.52;;;;;;;;;;5022900;28;20159;-64
2023/02/11 09:09:20;;;;;;;2.50;0.80;;;;;;;;;;5002049;28;20527;-64
2023/02/11 09:11:47;;;;;;;5.30;0.98;;;;;;;;;;5022392;28;20091;-66
2023/02/11 09:14:23;;;;;;;3.17;0.85;;;;;;;;;;5013262;28;20061;-62
2023/02/11 09:16:51;;;;;;;2.67;0.90;;;;;;;;;;5019276;28;20041;-65
2023/02/11 09:19:18;;;;;;;2.20;0.70;;;;;;;;;;5021688;28;20049;-63
2023/02/11 09:21:45;;;;;;;6.90;1.00;;;;;;;;;;5019713;28;20042;-65
2023/02/11 09:24:12;;;;;;;3.40;0.70;;;;;;;;;;5022261;28;20068;-64
2023/02/11 09:26:41;;;;;;;4.50;0.73;;;;;;;;;;5021717;28;20036;-64
2023/02/11 09:29:09;;;;;;;3.08;0.70;;;;;;;;;;5020298;28;20049;-64
2023/02/11 09:31:35;;;;;;;3.47;0.98;;;;;;;;;;5019925;28;20057;-64
2023/02/11 09:34:03;;;;;;;2.20;0.88;;;;;;;;;;5001885;28;20134;-62
2023/02/11 09:36:31;;;;;;;2.90;0.93;;;;;;;;;;5019407;28;20377;-62
2023/02/11 09:38:59;;;;;;;5.32;0.88;;;;;;;;;;5020693;28;20446;-62
2023/02/11 09:41:33;;;;;;;8.60;1.10;;;;;;;;;;5019385;28;20498;-63
2023/02/11 09:44:01;;;;;;;2.35;0.65;;;;;;;;;;5021727;28;20038;-62
2023/02/11 09:46:31;;;;;;;5.85;1.05;;;;;;;;;;5021046;28;20045;-64
2023/02/11 09:48:59;;;;;;;3.17;0.85;;;;;;;;;;5003851;28;20057;-60
2023/02/11 09:51:46;;;;;;;6.40;1.02;;;;;;;;;;5016568;28;20052;-63
2023/02/11 09:54:30;;;;;;;6.82;1.45;;;;;;;;;;5019374;28;20079;-61
2023/02/11 09:56:57;;;;;;;3.10;0.90;;;;;;;;;;5019095;28;20512;-62
2023/02/11 09:59:24;;;;;;;3.63;0.85;;;;;;;;;;5020482;28;20136;-63
2023/02/11 10:01:53;;;;;;;7.03;1.27;;;;;;;;;;5021639;28;20160;-65
2023/02/11 10:04:32;;;;;;;3.58;1.30;;;;;;;;;;5019376;28;21626;-63
2023/02/11 10:07:07;;;;;;;10.10;1.00;;;;;;;;;;5001056;28;20493;-64
2023/02/11 10:09:38;;;;;;;5.63;1.27;;;;;;;;;;5018422;28;20049;-63
2023/02/11 10:12:11;;;;;;;2.80;0.85;;;;;;;;;;5020501;28;20072;-62
2023/02/11 10:14:56;;;;;;;7.63;1.08;;;;;;;;;;5019991;28;20040;-63
2023/02/11 10:17:25;;;;;;;7.13;1.33;;;;;;;;;;5008960;28;20037;-61
2023/02/11 10:20:00;;;;;;;4.70;0.90;;;;;;;;;;5019952;28;20187;-64
2023/02/11 10:22:29;;;;;;;12.15;0.98;;;;;;;;;;5018697;28;20103;-64
2023/02/11 10:25:01;;;;;;;6.85;0.77;;;;;;;;;;5019644;28;20375;-65
2023/02/11 10:27:30;;;;;;;5.13;1.17;;;;;;;;;;5019121;28;20044;-63
2023/02/11 10:30:01;;;;;;;1.17;0.50;;;;;;;;;;5019925;28;20056;-64
2023/02/11 10:32:35;;;;;;;1.67;0.52;;;;;;;;;;5019461;28;20846;-63
2023/02/11 10:35:03;;;;;;;2.58;0.60;;;;;;;;;;5020206;28;20042;-64
2023/02/11 10:37:30;;;;;;;2.75;0.60;;;;;;;;;;5019796;28;20041;-64
2023/02/11 10:39:57;;;;;;;1.23;0.43;;;;;;;;;;5020541;28;20507;-63
2023/02/11 10:42:24;;;;;;;3.05;0.60;;;;;;;;;;5014051;28;20037;-63
2023/02/11 10:44:54;;;;;;;1.58;0.50;;;;;;;;;;5019706;28;20049;-63
2023/02/11 10:47:22;;;;;;;4.55;0.60;;;;;;;;;;5018627;28;20045;-63
2023/02/11 10:49:49;;;;;;;1.95;0.52;;;;;;;;;;5016556;28;20259;-61
2023/02/11 10:52:16;;;;;;;2.90;0.60;;;;;;;;;;5006819;28;20790;-63
2023/02/11 10:54:55;;;;;;;1.50;0.45;;;;;;;;;;4999732;28;20692;-65
2023/02/11 10:57:23;;;;;;;2.30;0.50;;;;;;;;;;5003669;28;20049;-65
2023/02/11 10:59:49;;;;;;;1.48;0.40;;;;;;;;;;4989567;28;20105;-63
2023/02/11 11:02:19;;;;;;;1.70;0.50;;;;;;;;;;5004188;28;20038;-62
2023/02/11 11:04:47;;;;;;;0.32;0.30;;;;;;;;;;4991609;28;20041;-62
2023/02/11 11:07:13;;;;;;;0.93;0.35;;;;;;;;;;4987563;28;20058;-62
2023/02/11 11:09:45;;;;;;;2.10;0.50;;;;;;;;;;4987485;28;20049;-64
2023/02/11 11:12:25;;;;;;;1.60;0.50;;;;;;;;;;4992114;28;20326;-62
2023/02/11 11:14:58;;;;;;;1.48;0.40;;;;;;;;;;4991881;28;20062;-63
2023/02/11 11:17:28;;;;;;;0.90;0.40;;;;;;;;;;4991866;28;20062;-63
2023/02/11 11:20:12;;;;;;;1.40;0.40;;;;;;;;;;4986412;28;20057;-61
2023/02/11 11:22:39;;;;;;;0.63;0.40;;;;;;;;;;4987928;28;20486;-61
2023/02/11 11:25:06;;;;;;;4.53;0.50;;;;;;;;;;4997734;28;20081;-63
2023/02/11 11:27:33;;;;;;;0.98;0.43;;;;;;;;;;4998396;28;20041;-63
2023/02/11 11:30:02;;;;;;;0.43;0.30;;;;;;;;;;4977792;28;20048;-61
2023/02/11 11:32:35;;;;;;;5.95;0.50;;;;;;;;;;4998216;28;20216;-62
2023/02/11 11:35:06;;;;;;;1.58;0.47;;;;;;;;;;4982429;28;20104;-62
2023/02/11 11:37:34;;;;;;;4.85;0.50;;;;;;;;;;4997436;28;20132;-62
2023/02/11 11:40:03;;;;;;;1.55;0.43;;;;;;;;;;4993189;28;20093;-60
2023/02/11 11:42:31;;;;;;;1.33;0.40;;;;;;;;;;4998529;28;20046;-63
2023/02/11 11:45:01;;;;;;;1.98;0.50;;;;;;;;;;4997251;28;20050;-63
2023/02/11 11:47:47;;;;;;;0.88;0.40;;;;;;;;;;4997401;28;20115;-61
2023/02/11 11:50:20;;;;;;;1.65;0.60;;;;;;;;;;4988864;28;20618;-61
2023/02/11 11:52:50;;;;;;;4.70;0.57;;;;;;;;;;4988303;28;20045;-59
2023/02/11 11:55:21;;;;;;;4.10;0.77;;;;;;;;;;4988384;28;20118;-60
2023/02/11 11:57:48;;;;;;;2.80;0.80;;;;;;;;;;4987890;28;20045;-63
2023/02/11 12:00:17;;;;;;;3.25;0.57;;;;;;;;;;4991887;28;20593;-61
2023/02/11 12:02:59;;;;;;;2.35;0.68;;;;;;;;;;4992763;28;20045;-64
2023/02/11 12:05:44;;;;;;;1.60;0.50;;;;;;;;;;4990031;28;20025;-63
2023/02/11 12:08:22;;;;;;;2.50;0.70;;;;;;;;;;4990927;28;20050;-60
2023/02/11 12:10:58;;;;;;;1.75;0.52;;;;;;;;;;4990045;28;20153;-61
2023/02/11 12:13:31;;;;;;;1.85;0.70;;;;;;;;;;4988173;28;20069;-63
2023/02/11 12:15:57;;;;;;;2.42;0.70;;;;;;;;;;4983951;28;20041;-61
2023/02/11 12:18:53;;;;;;;3.65;0.90;;;;;;;;;;4992332;28;20179;-61
2023/02/11 12:21:35;;;;;;;3.47;0.90;;;;;;;;;;4929873;28;20074;-62
2023/02/11 12:24:22;;;;;;;2.83;0.98;;;;;;;;;;5003119;28;20107;-63
2023/02/11 12:26:52;;;;;;;4.25;0.90;;;;;;;;;;4985036;28;20120;-62
2023/02/11 12:29:27;;;;;;;1.50;0.50;;;;;;;;;;5005090;28;20069;-61
2023/02/11 12:32:14;;;;;;;1.90;0.70;;;;;;;;;;5006652;28;20046;-62
2023/02/11 12:35:10;;;;;;;3.42;0.52;;;;;;;;;;4998965;28;20130;-64
2023/02/11 12:37:37;;;;;;;1.55;0.60;;;;;;;;;;4997594;28;20181;-62
2023/02/11 12:40:27;;;;;;;3.95;0.98;;;;;;;;;;4999219;28;20046;-61
2023/02/11 12:43:15;;;;;;;1.80;0.55;;;;;;;;;;5006948;28;20092;-61
2023/02/11 12:46:04;;;;;;;4.15;0.60;;;;;;;;;;5003475;28;20388;-62
2023/02/11 12:48:37;;;;;;;7.28;0.70;;;;;;;;;;4997801;28;20452;-62
2023/02/11 12:51:18;;;;;;;1.83;0.40;;;;;;;;;;4998435;28;20120;-62
2023/02/11 12:54:18;;;;;;;2.22;0.60;;;;;;;;;;5007201;28;20097;-64
2023/02/11 12:56:54;;;;;;;2.00;0.50;;;;;;;;;;5008577;28;20124;-61
2023/02/11 12:59:23;;;;;;;5.75;0.63;;;;;;;;;;5000427;28;20077;-63
2023/02/11 13:01:50;;;;;;;1.08;0.45;;;;;;;;;;5010071;28;20685;-63
2023/02/11 13:04:35;;;;;;;4.65;0.47;;;;;;;;;;5014863;28;20100;-63
2023/02/11 13:07:09;;;;;;;2.50;0.52;;;;;;;;;;5018624;28;20182;-62
2023/02/11 13:09:41;;;;;;;1.95;0.50;;;;;;;;;;5016049;28;20045;-63
2023/02/11 13:14:59;;;;;;;1.85;0.50;;;;;;;;;;5012644;28;20072;-62
2023/02/11 13:17:30;;;;;;;1.60;0.50;;;;;;;;;;4997258;28;20046;-63
2023/02/11 13:20:00;;;;;;;1.40;0.40;;;;;;;;;;5013840;28;20139;-64
2023/02/11 13:22:31;;;;;;;1.38;0.45;;;;;;;;;;5012648;28;20045;-66
2023/02/11 13:25:02;;;;;;;2.03;0.60;;;;;;;;;;5008653;28;20053;-62
2023/02/11 13:27:42;;;;;;;1.42;0.50;;;;;;;;;;5006266;28;20132;-66
2023/02/11 13:30:33;;;;;;;0.90;0.40;;;;;;;;;;4996316;28;20050;-61
2023/02/11 13:33:00;;;;;;;1.40;0.50;;;;;;;;;;4994190;28;20105;-64
2023/02/11 13:35:28;;;;;;;1.33;0.40;;;;;;;;;;4998510;28;20053;-62
2023/02/11 13:37:57;;;;;;;1.30;0.40;;;;;;;;;;4996440;28;20053;-65
2023/02/11 13:40:28;;;;;;;2.42;0.80;;;;;;;;;;4997408;28;20053;-63
2023/02/11 13:42:59;;;;;;;2.47;0.60;;;;;;;;;;4994526;28;20042;-65
2023/02/11 13:45:28;;;;;;;1.15;0.40;;;;;;;;;;4993263;28;20675;-65
2023/02/11 13:48:02;;;;;;;2.53;0.63;;;;;;;;;;4998032;28;21790;-63
2023/02/11 13:50:31;;;;;;;1.02;0.45;;;;;;;;;;4995031;28;20042;-64
2023/02/11 13:53:01;;;;;;;0.70;0.38;;;;;;;;;;4995418;28;20187;-66
2023/02/11 13:55:28;;;;;;;2.42;0.55;;;;;;;;;;4994030;28;20034;-64
2023/02/11 13:58:13;;;;;;;1.38;0.50;;;;;;;;;;4993601;28;20048;-63
2023/02/11 14:00:40;;;;;;;1.38;0.45;;;;;;;;;;4993086;28;20049;-64
2023/02/11 14:09:10;;;;;;;4.35;0.70;;;;;;;;;;4999022;28;20129;-63
2023/02/11 14:11:45;;;;;;;4.43;0.60;;;;;;;;;;4999450;28;20053;-63
2023/02/11 14:14:23;;;;;;;2.45;0.55;;;;;;;;;;4999008;28;20045;-63
2023/02/11 14:17:01;;;;;;;1.17;0.40;;;;;;;;;;5007396;28;20038;-63
2023/02/11 14:19:34;;;;;;;3.95;0.73;;;;;;;;;;5007811;28;20048;-62
2023/02/11 14:22:19;;;;;;;2.83;0.52;;;;;;;;;;4998115;28;20542;-62
2023/02/11 14:24:45;;;;;;;4.55;0.70;;;;;;;;;;5007432;28;20498;-62
2023/02/11 14:27:19;;;;;;;1.90;0.60;;;;;;;;;;5000019;28;20042;-62
2023/02/11 14:29:46;;;;;;;19.30;7.45;;;;;;;;;;5000612;28;20053;-64
2023/02/11 14:32:28;;;;;;;7.78;1.85;;;;;;;;;;5014422;28;20046;-61
2023/02/11 14:35:14;;;;;;;3.92;1.20;;;;;;;;;;5018784;28;20045;-60
2023/02/11 14:37:53;;;;;;;2.05;0.60;;;;;;;;;;5017395;28;20037;-63
2023/02/11 14:40:28;;;;;;;2.13;0.70;;;;;;;;;;5019986;28;20037;-63
2023/02/11 14:42:56;;;;;;;6.75;1.00;;;;;;;;;;4996489;28;20455;-62
2023/02/11 14:45:25;;;;;;;2.30;0.82;;;;;;;;;;5014116;28;20049;-64
2023/02/11 14:47:55;;;;;;;5.38;1.05;;;;;;;;;;5020046;28;20057;-64
2023/02/11 14:50:31;;;;;;;2.88;0.60;;;;;;;;;;5018922;28;20041;-64
2023/02/11 14:53:00;;;;;;;5.05;0.52;;;;;;;;;;5020185;28;20057;-64
2023/02/11 14:55:29;;;;;;;3.20;0.68;;;;;;;;;;5019356;28;20034;-63
2023/02/11 14:58:13;;;;;;;1.83;0.70;;;;;;;;;;5019912;28;20049;-63
2023/02/11 15:00:54;;;;;;;2.85;0.80;;;;;;;;;;5017239;28;20086;-64
2023/02/11 15:03:38;;;;;;;2.10;0.60;;;;;;;;;;5018014;28;20065;-61
2023/02/11 15:06:13;;;;;;;2.30;0.65;;;;;;;;;;5019252;28;20034;-64
2023/02/11 15:08:43;;;;;;;9.98;0.85;;;;;;;;;;5002053;28;20425;-63
2023/02/11 15:11:11;;;;;;;14.30;1.00;;;;;;;;;;5019979;28;20680;-62
2023/02/11 15:13:46;;;;;;;3.97;1.00;;;;;;;;;;5019739;28;20542;-65